createdAt,value
2019-01-22T00:00:15.462Z,121.53
2019-01-22T00:02:44.203Z,103.77
2019-01-22T00:05:13.262Z,85.33
2019-01-22T00:07:42.031Z,105.77
2019-01-22T00:10:30.298Z,93.67
2019-01-22T00:12:59.199Z,89.83
2019-01-22T00:15:28.202Z,101.67
2019-01-22T00:17:57.044Z,102.57
2019-01-22T00:20:25.885Z,91.33
2019-01-22T00:22:54.804Z,100.80
2019-01-22T00:25:23.550Z,97.30
2019-01-22T00:27:52.315Z,145.70
2019-01-22T00:30:21.163Z,142.47
2019-01-22T00:32:49.987Z,163.33
2019-01-22T00:35:19.029Z,170.33
2019-01-22T00:37:48.045Z,159.20
2019-01-22T00:40:16.992Z,134.43
2019-01-22T00:42:46.207Z,162.40
2019-01-22T00:45:15.275Z,152.00
2019-01-22T00:47:44.442Z,160.73
2019-01-22T00:50:15.145Z,158.70
2019-01-22T00:52:44.036Z,165.77
2019-01-22T00:55:14.142Z,157.37
2019-01-22T00:57:42.917Z,126.77
2019-01-22T01:00:24.296Z,121.57
2019-01-22T01:02:53.042Z,123.00
2019-01-22T01:05:22.115Z,124.83
2019-01-22T01:07:51.397Z,123.37
2019-01-22T01:10:20.309Z,144.03
2019-01-22T01:12:49.200Z,151.20
2019-01-22T01:15:18.196Z,161.63
2019-01-22T01:17:47.041Z,166.40
2019-01-22T01:20:17.902Z,168.40
2019-01-22T01:22:46.765Z,164.97
2019-01-22T01:25:17.278Z,161.63
2019-01-22T01:27:46.312Z,161.37
2019-01-22T01:30:18.142Z,165.37
2019-01-22T01:32:47.370Z,159.50
2019-01-22T01:35:16.354Z,161.20
2019-01-22T01:37:45.166Z,162.43
2019-01-22T01:40:15.806Z,162.13
2019-01-22T01:42:44.815Z,164.83
2019-01-22T01:45:13.885Z,143.07
2019-01-22T01:47:43.162Z,135.50
2019-01-22T01:50:15.546Z,143.67
2019-01-22T01:52:44.329Z,128.77
2019-01-22T01:55:14.990Z,119.27
2019-01-22T01:57:43.960Z,165.60
2019-01-22T02:00:20.685Z,148.30
2019-01-22T02:02:49.742Z,155.17
2019-01-22T02:05:18.693Z,168.93
2019-01-22T02:08:06.894Z,149.23
2019-01-22T02:10:35.809Z,150.97
2019-01-22T02:13:10.947Z,167.30
2019-01-22T02:16:23.003Z,153.70
2019-01-22T02:19:29.900Z,166.00
2019-01-22T02:22:29.896Z,146.47
2019-01-22T02:25:21.376Z,156.60
2019-01-22T02:28:15.748Z,160.57
2019-01-22T02:31:02.623Z,150.13
2019-01-22T02:34:06.028Z,157.20
2019-01-22T02:36:59.714Z,161.67
2019-01-22T02:39:49.076Z,147.63
2019-01-22T02:42:32.786Z,171.87
2019-01-22T02:45:38.243Z,176.07
2019-01-22T02:48:45.657Z,166.37
2019-01-22T02:51:39.595Z,149.87
2019-01-22T02:54:16.777Z,163.03
2019-01-22T02:57:14.791Z,141.10
2019-01-22T03:00:19.788Z,192.77
2019-01-22T03:03:25.302Z,187.47
2019-01-22T03:06:47.904Z,177.13
2019-01-22T03:09:38.189Z,184.73
2019-01-22T03:12:32.035Z,179.70
2019-01-22T03:15:47.226Z,185.60
2019-01-22T03:18:28.690Z,180.10
2019-01-22T03:21:34.547Z,178.63
2019-01-22T03:24:22.721Z,179.67
2019-01-22T03:27:23.397Z,176.50
2019-01-22T03:30:15.361Z,113.80
2019-01-22T03:33:01.303Z,137.37
2019-01-22T03:36:17.071Z,129.23
2019-01-22T03:39:30.021Z,122.77
2019-01-22T03:42:55.696Z,125.27
2019-01-22T03:45:30.699Z,149.73
2019-01-22T03:48:39.363Z,140.97
2019-01-22T03:51:29.050Z,185.37
2019-01-22T03:54:39.526Z,188.40
2019-01-22T03:57:34.866Z,188.93
2019-01-22T04:00:07.952Z,185.60
2019-01-22T04:02:37.573Z,184.03
2019-01-22T04:05:08.471Z,187.53
2019-01-22T04:07:37.361Z,186.20
2019-01-22T04:10:26.876Z,182.13
2019-01-22T04:12:55.651Z,185.00
2019-01-22T04:15:29.044Z,179.63
2019-01-22T04:17:58.082Z,184.30
2019-01-22T04:20:26.995Z,147.90
2019-01-22T04:23:03.229Z,165.57
2019-01-22T04:25:41.596Z,169.80
2019-01-22T04:29:16.145Z,166.00
2019-01-22T04:32:09.119Z,165.17
2019-01-22T04:35:18.800Z,161.77
2019-01-22T04:38:28.879Z,150.27
2019-01-22T04:41:57.113Z,173.90
2019-01-22T04:44:55.877Z,168.43
2019-01-22T04:48:08.120Z,165.90
2019-01-22T04:51:22.953Z,168.27
2019-01-22T04:54:19.818Z,134.77
2019-01-22T04:57:15.610Z,125.70
2019-01-22T05:00:34.100Z,148.07
2019-01-22T05:03:30.533Z,115.03
2019-01-22T05:06:27.787Z,86.73
2019-01-22T05:09:26.237Z,92.47
2019-01-22T05:12:33.696Z,94.20
2019-01-22T05:15:41.112Z,93.43
2019-01-22T05:19:03.556Z,89.93
2019-01-22T05:22:16.121Z,89.83
2019-01-22T05:25:10.889Z,90.53
2019-01-22T05:28:07.941Z,98.27
2019-01-22T05:30:49.418Z,100.63
2019-01-22T05:33:44.924Z,122.97
2019-01-22T05:36:41.133Z,140.50
2019-01-22T05:39:26.831Z,138.37
2019-01-22T05:42:38.433Z,132.00
2019-01-22T05:45:36.140Z,135.13
2019-01-22T05:49:01.732Z,101.23
2019-01-22T05:52:01.044Z,94.43
2019-01-22T05:55:12.266Z,90.80
2019-01-22T05:58:10.568Z,91.37
2019-01-22T06:01:01.324Z,94.50
2019-01-22T06:03:54.851Z,87.27
2019-01-22T06:07:14.652Z,92.50
2019-01-22T06:10:20.364Z,103.27
2019-01-22T06:13:22.221Z,98.20
2019-01-22T06:16:08.762Z,93.53
2019-01-22T06:19:14.744Z,89.00
2019-01-22T06:22:29.782Z,88.47
2019-01-22T06:25:32.264Z,102.87
2019-01-22T06:28:09.990Z,105.00
2019-01-22T06:30:53.092Z,104.27
2019-01-22T06:34:06.541Z,103.50
2019-01-22T06:37:21.445Z,92.17
2019-01-22T06:40:37.615Z,93.57
2019-01-22T06:43:33.334Z,98.80
2019-01-22T06:46:13.238Z,109.13
2019-01-22T06:49:14.560Z,94.97
2019-01-22T06:52:21.205Z,91.43
2019-01-22T06:55:34.320Z,90.00
2019-01-22T06:58:53.826Z,104.30
2019-01-22T07:01:41.755Z,109.73
2019-01-22T07:04:35.559Z,123.03
2019-01-22T07:07:21.913Z,114.03
2019-01-22T07:10:18.556Z,121.03
2019-01-22T07:13:15.591Z,102.30
2019-01-22T07:16:30.682Z,123.97
2019-01-22T07:19:08.457Z,146.57
2019-01-22T07:22:16.790Z,143.47
2019-01-22T07:25:35.328Z,147.53
2019-01-22T07:28:34.373Z,126.63
2019-01-22T07:31:30.643Z,146.53
2019-01-22T07:34:59.090Z,140.80
2019-01-22T07:37:36.908Z,135.43
2019-01-22T07:40:29.405Z,148.97
2019-01-22T07:43:21.615Z,150.73
2019-01-22T07:46:12.751Z,155.70
2019-01-22T07:49:00.996Z,118.87
2019-01-22T07:52:19.552Z,126.10
2019-01-22T07:55:32.552Z,130.50
2019-01-22T07:58:28.681Z,135.47
2019-01-22T08:01:37.992Z,133.67
2019-01-22T08:04:46.381Z,137.53
2019-01-22T08:07:46.316Z,143.03
2019-01-22T08:10:56.823Z,142.30
2019-01-22T08:14:06.709Z,143.43
2019-01-22T08:17:21.415Z,146.80
2019-01-22T08:20:13.012Z,140.67
2019-01-22T08:23:18.147Z,143.87
2019-01-22T08:26:36.586Z,138.10
2019-01-22T08:29:54.483Z,131.40
2019-01-22T08:33:14.024Z,132.20
2019-01-22T08:35:54.236Z,134.97
2019-01-22T08:38:43.587Z,139.93
2019-01-22T08:41:42.506Z,122.63
2019-01-22T08:44:29.503Z,106.37
2019-01-22T08:48:03.931Z,111.27
2019-01-22T08:50:55.131Z,98.17
2019-01-22T08:53:39.622Z,99.67
2019-01-22T08:56:36.582Z,98.63
2019-01-22T08:59:37.709Z,100.10
2019-01-22T09:02:33.034Z,105.07
2019-01-22T09:05:45.209Z,97.33
2019-01-22T09:08:32.835Z,106.63
2019-01-22T09:11:45.983Z,102.57
2019-01-22T09:14:49.736Z,142.37
2019-01-22T09:18:04.546Z,133.57
2019-01-22T09:21:14.014Z,118.43
2019-01-22T09:24:23.699Z,123.07
2019-01-22T09:27:43.275Z,122.60
2019-01-22T09:30:38.667Z,130.57
2019-01-22T09:33:23.585Z,118.90
2019-01-22T09:36:52.242Z,122.83
2019-01-22T09:39:21.477Z,125.23
2019-01-22T09:41:50.285Z,114.27
2019-01-22T09:44:19.273Z,98.03
2019-01-22T09:46:48.130Z,108.83
2019-01-22T09:49:17.029Z,99.90
2019-01-22T09:51:46.069Z,105.60
2019-01-22T09:54:14.982Z,104.90
2019-01-22T09:56:44.379Z,100.17
2019-01-22T09:59:13.431Z,122.63
2019-01-22T10:01:42.388Z,115.50
2019-01-22T10:04:11.571Z,109.77
2019-01-22T10:06:40.448Z,97.70
2019-01-22T10:09:10.832Z,107.43
2019-01-22T10:11:40.584Z,100.93
2019-01-22T10:14:09.820Z,104.40
2019-01-22T10:16:38.715Z,111.47
2019-01-22T10:19:07.593Z,113.60
2019-01-22T10:21:36.559Z,124.00
2019-01-22T10:24:05.545Z,123.93
2019-01-22T10:26:34.536Z,119.77
2019-01-22T10:29:03.923Z,121.43
2019-01-22T10:31:32.695Z,126.23
2019-01-22T10:34:01.630Z,118.23
2019-01-22T10:36:31.155Z,125.37
2019-01-22T10:39:00.141Z,111.63
2019-01-22T10:41:29.031Z,115.03
2019-01-22T10:43:57.842Z,111.53
2019-01-22T10:46:26.761Z,115.40
2019-01-22T10:48:56.189Z,100.47
2019-01-22T10:51:25.222Z,92.60
2019-01-22T10:53:54.095Z,96.90
2019-01-22T10:56:22.863Z,96.13
2019-01-22T10:58:51.746Z,98.57
2019-01-22T11:01:20.538Z,98.77
2019-01-22T11:03:49.291Z,109.10
2019-01-22T11:06:18.277Z,113.60
2019-01-22T11:08:47.157Z,116.37
2019-01-22T11:11:15.919Z,121.30
2019-01-22T11:13:44.882Z,123.13
2019-01-22T11:16:15.124Z,114.80
2019-01-22T11:18:44.108Z,120.93
2019-01-22T11:21:13.081Z,119.63
2019-01-22T11:23:41.859Z,119.03
2019-01-22T11:26:10.827Z,117.17
2019-01-22T11:28:39.856Z,124.57
2019-01-22T11:31:08.662Z,121.97
2019-01-22T11:33:37.468Z,119.87
2019-01-22T11:36:06.330Z,120.33
2019-01-22T11:38:35.231Z,119.00
2019-01-22T11:41:04.159Z,119.27
2019-01-22T11:43:33.010Z,122.17
2019-01-22T11:46:01.809Z,116.73
2019-01-22T11:48:30.569Z,115.87
2019-01-22T11:50:59.560Z,115.53
2019-01-22T11:53:28.490Z,118.63
2019-01-22T11:55:57.280Z,114.30
2019-01-22T11:58:26.389Z,114.03
2019-01-22T12:01:00.722Z,120.80
2019-01-22T12:03:29.529Z,120.50
2019-01-22T12:05:58.509Z,112.80
2019-01-22T12:08:27.487Z,120.33
2019-01-22T12:10:56.437Z,131.23
2019-01-22T12:13:25.293Z,113.43
2019-01-22T12:15:54.265Z,121.53
2019-01-22T12:18:23.141Z,120.63
2019-01-22T12:20:51.928Z,125.60
2019-01-22T12:23:21.044Z,122.37
2019-01-22T12:25:49.861Z,121.73
2019-01-22T12:28:18.763Z,121.87
2019-01-22T12:30:47.972Z,122.83
2019-01-22T12:33:17.005Z,119.80
2019-01-22T12:35:46.044Z,124.03
2019-01-22T12:38:15.068Z,119.33
2019-01-22T12:40:43.965Z,114.83
2019-01-22T12:43:12.874Z,112.03
2019-01-22T12:45:41.640Z,121.27
2019-01-22T12:48:10.727Z,121.13
2019-01-22T12:50:40.228Z,122.53
2019-01-22T12:53:11.180Z,119.63
2019-01-22T12:55:40.046Z,117.80
2019-01-22T12:58:14.101Z,119.70
2019-01-22T13:00:43.120Z,123.27
2019-01-22T13:03:12.058Z,119.73
2019-01-22T13:05:53.953Z,102.13
2019-01-22T13:08:22.859Z,98.97
2019-01-22T13:10:51.753Z,98.00
2019-01-22T13:13:20.674Z,98.97
2019-01-22T13:15:49.932Z,107.83
2019-01-22T13:18:18.921Z,120.57
2019-01-22T13:20:47.884Z,120.07
2019-01-22T13:23:16.699Z,118.90
2019-01-22T13:25:45.573Z,118.47
2019-01-22T13:28:14.583Z,119.30
2019-01-22T13:30:43.422Z,120.17
2019-01-22T13:33:12.358Z,119.53
2019-01-22T13:35:41.380Z,114.27
2019-01-22T13:38:10.427Z,118.40
2019-01-22T13:40:39.226Z,122.13
2019-01-22T13:43:08.174Z,117.10
2019-01-22T13:45:37.240Z,110.50
2019-01-22T13:48:07.496Z,107.70
2019-01-22T13:50:36.459Z,111.07
2019-01-22T13:53:05.315Z,104.60
2019-01-22T13:55:36.222Z,118.87
2019-01-22T13:58:05.356Z,117.10
2019-01-22T14:00:34.206Z,106.47
2019-01-22T14:03:03.170Z,109.47
2019-01-22T14:05:32.020Z,115.93
2019-01-22T14:08:00.850Z,118.07
2019-01-22T14:10:29.901Z,116.40
2019-01-22T14:12:59.335Z,114.53
2019-01-22T14:15:30.836Z,117.73
2019-01-22T14:17:59.730Z,111.73
2019-01-22T14:20:28.637Z,112.43
2019-01-22T14:22:57.667Z,115.47
2019-01-22T14:25:26.673Z,113.10
2019-01-22T14:27:55.729Z,115.93
2019-01-22T14:30:27.004Z,115.23
2019-01-22T14:32:56.033Z,107.30
2019-01-22T14:35:25.105Z,115.33
2019-01-22T14:37:57.178Z,120.63
2019-01-22T14:40:45.226Z,117.10
2019-01-22T14:43:14.125Z,113.20
2019-01-22T14:45:43.042Z,113.43
2019-01-22T14:48:11.893Z,112.73
2019-01-22T14:50:40.980Z,113.33
2019-01-22T14:53:09.986Z,115.70
2019-01-22T14:55:38.917Z,116.47
2019-01-22T14:58:07.867Z,117.20
2019-01-22T15:00:36.813Z,104.57
2019-01-22T15:03:05.907Z,111.73
2019-01-22T15:05:34.718Z,100.57
2019-01-22T15:08:03.612Z,105.77
2019-01-22T15:10:32.449Z,98.93
2019-01-22T15:13:02.157Z,109.00
2019-01-22T15:15:31.091Z,111.33
2019-01-22T15:17:59.982Z,116.27
2019-01-22T15:20:28.903Z,114.40
2019-01-22T15:22:57.781Z,113.87
2019-01-22T15:25:26.738Z,118.10
2019-01-22T15:27:55.610Z,109.77
2019-01-22T15:30:32.604Z,111.67
2019-01-22T15:33:01.484Z,109.97
2019-01-22T15:35:30.412Z,113.20
2019-01-22T15:37:59.329Z,106.27
2019-01-22T15:40:29.304Z,113.53
2019-01-22T15:42:58.301Z,109.40
2019-01-22T15:45:28.008Z,105.87
2019-01-22T15:47:56.931Z,99.80
2019-01-22T15:50:25.906Z,106.70
2019-01-22T15:52:54.891Z,99.53
2019-01-22T15:55:26.451Z,98.07
2019-01-22T15:57:55.298Z,103.70
2019-01-22T16:00:24.810Z,98.47
2019-01-22T16:02:53.671Z,102.83
2019-01-22T16:05:22.570Z,101.77
2019-01-22T16:07:51.535Z,97.80
2019-01-22T16:10:20.378Z,102.77
2019-01-22T16:12:49.164Z,99.17
2019-01-22T16:15:20.013Z,102.20
2019-01-22T16:17:49.245Z,118.20
2019-01-22T16:20:23.051Z,118.17
2019-01-22T16:22:51.990Z,126.70
2019-01-22T16:25:20.958Z,121.03
2019-01-22T16:27:49.989Z,114.60
2019-01-22T16:30:20.673Z,110.00
2019-01-22T16:32:49.690Z,122.30
2019-01-22T16:35:20.565Z,119.70
2019-01-22T16:37:49.578Z,117.43
2019-01-22T16:40:18.598Z,120.47
2019-01-22T16:42:47.955Z,111.97
2019-01-22T16:45:22.371Z,104.07
2019-01-22T16:47:51.345Z,112.53
2019-01-22T16:50:20.394Z,116.57
2019-01-22T16:52:49.506Z,117.90
2019-01-22T16:55:30.627Z,119.53
2019-01-22T16:57:59.704Z,132.00
2019-01-22T17:00:30.362Z,126.57
2019-01-22T17:03:00.057Z,124.73
2019-01-22T17:05:29.081Z,126.33
2019-01-22T17:07:58.171Z,124.17
2019-01-22T17:10:27.157Z,116.63
2019-01-22T17:12:56.167Z,117.03
2019-01-22T17:15:25.192Z,107.20
2019-01-22T17:17:54.131Z,118.97
2019-01-22T17:20:25.592Z,121.77
2019-01-22T17:22:54.590Z,128.07
2019-01-22T17:25:23.520Z,129.83
2019-01-22T17:27:52.527Z,119.20
2019-01-22T17:30:22.095Z,117.03
2019-01-22T17:32:59.674Z,117.80
2019-01-22T17:35:29.221Z,117.20
2019-01-22T17:37:58.029Z,119.90
2019-01-22T17:40:27.002Z,122.60
2019-01-22T17:42:56.025Z,120.77
2019-01-22T17:45:25.083Z,115.80
2019-01-22T17:47:53.973Z,121.13
2019-01-22T17:50:23.012Z,111.77
2019-01-22T17:52:51.944Z,113.03
2019-01-22T17:55:20.976Z,111.07
2019-01-22T17:57:50.650Z,114.17
2019-01-22T18:00:21.528Z,112.87
2019-01-22T18:02:50.484Z,115.80
2019-01-22T18:05:19.596Z,112.37
2019-01-22T18:07:48.635Z,122.43
2019-01-22T18:10:17.567Z,118.60
2019-01-22T18:12:46.397Z,115.40
2019-01-22T18:15:15.450Z,119.40
2019-01-22T18:17:44.454Z,118.40
2019-01-22T18:20:15.800Z,120.40
2019-01-22T18:22:44.850Z,116.00
2019-01-22T18:25:13.721Z,117.57
2019-01-22T18:27:42.606Z,118.47
2019-01-22T18:30:14.243Z,115.53
2019-01-22T18:32:43.039Z,114.33
2019-01-22T18:35:14.659Z,118.77
2019-01-22T18:37:43.611Z,119.63
2019-01-22T18:40:13.191Z,111.10
2019-01-22T18:42:42.156Z,108.50
2019-01-22T18:45:12.902Z,119.00
2019-01-22T18:47:41.720Z,109.77
2019-01-22T18:50:14.132Z,116.80
2019-01-22T18:52:43.188Z,117.43
2019-01-22T18:55:12.153Z,120.53
2019-01-22T18:57:41.018Z,115.43
2019-01-22T19:00:12.262Z,110.37
2019-01-22T19:02:41.203Z,114.30
2019-01-22T19:05:10.257Z,118.87
2019-01-22T19:07:39.604Z,120.10
2019-01-22T19:10:10.997Z,120.20
2019-01-22T19:12:39.920Z,122.93
2019-01-22T19:15:11.345Z,122.77
2019-01-22T19:17:40.242Z,118.33
2019-01-22T19:20:09.495Z,116.23
2019-01-22T19:22:38.518Z,118.33
2019-01-22T19:25:10.540Z,112.07
2019-01-22T19:27:42.987Z,115.87
2019-01-22T19:30:15.977Z,96.57
2019-01-22T19:32:45.185Z,100.20
2019-01-22T19:35:14.289Z,102.67
2019-01-22T19:37:43.351Z,101.03
2019-01-22T19:40:13.689Z,102.00
2019-01-22T19:42:42.676Z,108.37
2019-01-22T19:45:16.713Z,110.23
2019-01-22T19:47:45.661Z,121.00
2019-01-22T19:50:15.333Z,100.07
2019-01-22T19:52:44.376Z,99.80
2019-01-22T19:55:13.390Z,99.97
2019-01-22T19:57:42.487Z,106.43
2019-01-22T20:00:17.353Z,117.30
2019-01-22T20:02:46.242Z,114.90
2019-01-22T20:05:15.157Z,114.60
2019-01-22T20:07:44.125Z,117.87
2019-01-22T20:10:13.514Z,115.23
2019-01-22T20:12:42.398Z,122.50
2019-01-22T20:15:11.859Z,126.20
2019-01-22T20:17:40.830Z,121.27
2019-01-22T20:20:15.259Z,118.73
2019-01-22T20:22:44.156Z,119.87
2019-01-22T20:25:13.175Z,112.07
2019-01-22T20:27:47.964Z,119.13
2019-01-22T20:30:16.514Z,102.73
2019-01-22T20:32:45.342Z,101.83
2019-01-22T20:35:14.229Z,102.83
2019-01-22T20:37:43.105Z,108.23
2019-01-22T20:40:13.110Z,101.63
2019-01-22T20:42:42.099Z,101.33
2019-01-22T20:45:13.559Z,103.47
2019-01-22T20:47:42.464Z,102.73
2019-01-22T20:50:18.779Z,103.37
2019-01-22T20:52:42.781Z,100.23
2019-01-22T20:55:13.052Z,97.50
2019-01-22T20:57:41.868Z,101.60
2019-01-22T21:00:14.070Z,103.00
2019-01-22T21:02:43.071Z,102.57
2019-01-22T21:05:13.894Z,111.83
2019-01-22T21:07:42.844Z,112.53
2019-01-22T21:10:15.695Z,113.50
2019-01-22T21:12:45.018Z,111.00
2019-01-22T21:15:14.009Z,114.83
2019-01-22T21:17:42.918Z,104.63
2019-01-22T21:20:11.973Z,104.57
2019-01-22T21:22:40.925Z,106.10
2019-01-22T21:25:11.097Z,100.80
2019-01-22T21:27:40.822Z,104.03
2019-01-22T21:30:13.187Z,101.73
2019-01-22T21:32:42.188Z,102.93
2019-01-22T21:35:10.990Z,102.70
2019-01-22T21:37:39.852Z,110.47
2019-01-22T21:40:09.354Z,105.97
2019-01-22T21:42:38.811Z,107.20
2019-01-22T21:45:10.539Z,112.40
2019-01-22T21:47:39.350Z,105.27
2019-01-22T21:50:09.779Z,104.47
2019-01-22T21:52:38.636Z,106.40
2019-01-22T21:55:10.074Z,108.67
2019-01-22T21:57:38.956Z,105.70
2019-01-22T22:00:10.720Z,101.17
2019-01-22T22:02:39.694Z,104.73
2019-01-22T22:05:09.700Z,110.03
2019-01-22T22:07:38.679Z,110.77
2019-01-22T22:10:10.612Z,113.30
2019-01-22T22:12:39.479Z,111.13
2019-01-22T22:15:09.015Z,112.63
2019-01-22T22:17:38.065Z,113.83
2019-01-22T22:20:09.391Z,115.80
2019-01-22T22:22:38.315Z,113.20
2019-01-22T22:25:08.086Z,113.17
2019-01-22T22:27:36.862Z,111.00
2019-01-22T22:30:09.632Z,109.50
2019-01-22T22:32:38.621Z,107.77
2019-01-22T22:35:07.720Z,108.20
2019-01-22T22:37:36.508Z,104.47
2019-01-22T22:40:06.407Z,107.10
2019-01-22T22:42:35.285Z,104.10
2019-01-22T22:45:04.386Z,105.10
2019-01-22T22:47:33.350Z,105.30
2019-01-22T22:50:02.197Z,104.77
2019-01-22T22:52:30.988Z,107.93
2019-01-22T22:55:00.259Z,113.00
2019-01-22T22:57:29.410Z,106.27
2019-01-22T22:59:58.922Z,108.90
2019-01-22T23:02:27.912Z,104.33
2019-01-22T23:04:56.782Z,99.40
2019-01-22T23:07:25.718Z,102.00
2019-01-22T23:09:54.617Z,101.43
2019-01-22T23:12:23.397Z,101.50
2019-01-22T23:14:52.353Z,99.53
2019-01-22T23:17:21.311Z,101.47
2019-01-22T23:19:50.131Z,99.43
2019-01-22T23:22:19.127Z,101.10
2019-01-22T23:24:47.902Z,105.00
2019-01-22T23:27:16.826Z,108.23
2019-01-22T23:29:45.713Z,109.80
2019-01-22T23:32:14.646Z,104.40
2019-01-22T23:34:43.600Z,100.77
2019-01-22T23:37:12.379Z,100.77
2019-01-22T23:39:41.339Z,103.40
2019-01-22T23:42:10.216Z,100.47
2019-01-22T23:44:39.128Z,102.87
2019-01-22T23:47:08.096Z,100.40
2019-01-22T23:49:37.037Z,102.50
2019-01-22T23:52:06.115Z,100.40
2019-01-22T23:54:34.951Z,100.77
2019-01-22T23:57:03.828Z,103.47
2019-01-22T23:59:32.656Z,102.33
